Terminal Aerodrome Forecast
Issued by NWS Charleston, SC

Home | Current Version | Previous Version | Text Only | Print | Product List | Glossary On
Versions: 1 2 3 4 5 6 7 8 9 10 11 12 13 14 15 16 17 18 19 20 21
533
FTUS42 KCHS 241120
TAFSAV
TAF
KSAV 241120Z 2412/2512 05007KT P6SM FEW035
     FM242100 11006KT P6SM SKC
     FM250600 00000KT 5SM BR SCT008=

USA.gov is the U.S. government's official web portal to all federal, state and local government web resources and services.